Flight Track Log - Related Links

Times and Time Zones

All times are in EDT time to prevent confusion due to time zone crossing. See the UAL4234 flight status page for this flight to view local times or setup timezone preferences in your user account.

Time Position Orientation Groundspeed Altitude Reporting Facility
EDT Latitude Longitude Course Direction KTS MPH feet Rate Location/Type
Tue 04:42:22 PM 29.9661 -95.3456 95° East 164 189 500  Level Houston Center
Tue 04:43:29 PM 29.9414 -95.2833 115° Southeast 231 266 2,500 1,895 Climbing Houston Center
Tue 04:44:16 PM 29.9364 -95.2247 96° East 242 278 4,100 2,226 Climbing Houston Center
Tue 04:44:31 PM 29.9339 -95.2022 97° East 281 323 4,800 2,419 Climbing Houston Center
Tue 04:45:00 PM 29.9251 -94.9424 97° East  Level FlightAware Approximate
Tue 04:45:18 PM 29.9308 -95.1369 93° East 270 311 6,600  Level Houston Center
Tue 04:46:00 PM 29.9121 -94.8110 95° East  Level FlightAware Approximate
Tue 04:46:21 PM 29.9225 -95.0439 96° East 285 328 9,200  Level Houston Center
Tue 04:47:00 PM 29.9011 -94.6793 95° East  Level FlightAware Approximate
Tue 04:47:23 PM 29.9147 -94.9475 95° East 296 341 11,300  Level Houston Center
Tue 04:48:25 PM 29.9064 -94.8458 95° East 311 358 13,600 2,081 Climbing Houston Center
Tue 04:49:27 PM 29.8967 -94.7194 95° East 326 375 15,600 1,742 Climbing Houston Center
Tue 04:50:29 PM 29.8869 -94.6072 96° East 344 396 17,200 1,548 Climbing Houston Center
Tue 04:51:31 PM 29.8764 -94.4903 96° East 361 415 18,800 1,500 Climbing Houston Center
Tue 04:52:33 PM 29.8664 -94.3722 96° East 369 425 20,300 1,452 Climbing Houston Center
Tue 04:53:35 PM 29.8603 -94.2497 93° East 381 438 21,800 1,452 Climbing Houston Center
Tue 04:54:37 PM 29.8561 -94.1231 92° East 387 445 23,300 1,500 Climbing Houston Center
Tue 04:55:39 PM 29.8572 -93.9983 89° East 393 452 24,900 1,887 Climbing Houston Center
Tue 04:56:41 PM 29.8739 -93.8533 82° East 384 442 27,200 2,032 Climbing Houston Center
Tue 04:57:43 PM 29.8856 -93.7372 83° East 369 425 29,100 1,355 Climbing Houston Center
Tue 04:58:45 PM 29.8808 -93.6228 93° East 366 421 30,000 871 Climbing Houston Center
Tue 04:59:47 PM 29.8750 -93.5042 93° East 370 426 30,900 919 Climbing Houston Center
Tue 05:00:49 PM 29.8703 -93.3806 92° East 383 441 31,900 1,113 Climbing Houston Center
Tue 05:01:51 PM 29.8811 -93.2278 85° East 403 464 33,200 1,065 Climbing Houston Center
Tue 05:02:53 PM 29.9097 -93.1017 75° East 408 470 34,100 919 Climbing Houston Center
Tue 05:03:55 PM 29.9344 -92.9747 77° East 408 470 35,100 871 Climbing Houston Center
Tue 05:04:57 PM 29.9581 -92.8486 78° East 406 467 35,900 629 Climbing Houston Center
Tue 05:05:59 PM 29.9817 -92.7236 78° East 403 464 36,400 532 Climbing Houston Center
Tue 05:07:01 PM 30.0106 -92.5683 78° East 410 472 37,000 290 Climbing Houston Center
Tue 05:08:03 PM 30.0350 -92.4378 78° East 416 479 37,000  Level Houston Center
Tue 05:09:05 PM 30.0614 -92.3017 77° East 428 493 37,000  Level Houston Center
Tue 05:10:07 PM 30.0861 -92.1600 79° East 444 511 37,000  Level Houston Center
Tue 05:11:09 PM 30.1125 -92.0181 78° East 453 521 37,000  Level Houston Center
Tue 05:12:11 PM 30.1392 -91.8733 78° East 460 529 37,000  Level Houston Center
Tue 05:13:13 PM 30.1692 -91.7161 78° East 459 528 37,000  Level Houston Center
Tue 05:14:15 PM 30.1989 -91.5489 78° East 460 529 37,000  Level Houston Center
Tue 05:15:17 PM 30.2244 -91.4056 78° East 458 527 37,000  Level Houston Center
Tue 05:16:19 PM 30.2497 -91.2608 79° East 460 529 37,000 -48 Level Houston Center
Tue 05:17:21 PM 30.2750 -91.1175 78° East 458 527 36,900  Descending Houston Center
Tue 05:18:23 PM 30.3003 -90.9733 78° East 458 527 37,000 48 Climbing Houston Center
Tue 05:19:25 PM 30.3261 -90.8281 78° East 461 531 37,000  Level Houston Center
Tue 05:20:27 PM 30.3572 -90.6517 78° East 466 536 37,000  Level Houston Center
Tue 05:21:29 PM 30.3917 -90.5047 75° East 471 542 37,000  Level Houston Center
Tue 05:22:32 PM 30.4417 -90.3594 68° East 481 554 37,000  Level Houston Center
Tue 05:23:34 PM 30.4889 -90.2122 70° East 484 557 37,000  Level Houston Center
Tue 05:24:36 PM 30.5361 -90.0631 70° East 489 563 37,000  Level Houston Center
Tue 05:25:38 PM 30.5867 -89.9131 69° East 491 565 37,000  Level Houston Center
Tue 05:26:40 PM 30.6344 -89.7608 70° East 493 567 37,000  Level Houston Center
Tue 05:27:42 PM 30.6828 -89.6100 70° East 494 568 37,000  Level Houston Center
Tue 05:28:44 PM 30.7392 -89.4306 70° East 491 565 37,000  Level Houston Center
Tue 05:29:46 PM 30.7850 -89.2817 70° East 489 563 37,000  Level Houston Center
Tue 05:30:49 PM 30.8411 -89.1361 66° East 493 567 37,000  Level Houston Center
Tue 05:31:51 PM 30.9114 -89.0003 59° Northeast 492 566 37,000  Level Houston Center
Tue 05:32:53 PM 30.9825 -88.8611 59° Northeast 494 568 37,000  Level Houston Center
Tue 05:33:55 PM 31.0528 -88.7203 60° Northeast 502 578 37,000 -48 Level Houston Center
Tue 05:34:57 PM 31.1367 -88.5536 60° Northeast 505 581 36,900  Descending Houston Center
Tue 05:35:59 PM 31.2056 -88.4150 60° Northeast 498 573 37,000 48 Climbing Houston Center
Tue 05:37:01 PM 31.2803 -88.2689 59° Northeast 494 568 37,000  Level Houston Center
Tue 05:37:55 PM 31.3378 -88.1572 59° Northeast 496 571 37,000  Level Atlanta Center
Tue 05:38:55 PM 31.4069 -88.0192 60° Northeast 491 565 37,000  Level Atlanta Center
Tue 05:39:55 PM 31.4764 -87.8761 60° Northeast 497 572 37,000  Level Atlanta Center
Tue 05:40:55 PM 31.5453 -87.7353 60° Northeast 497 572 37,000  Level Atlanta Center
Tue 05:41:55 PM 31.6142 -87.5967 60° Northeast 497 572 37,000  Level Atlanta Center
Tue 05:42:55 PM 31.6828 -87.4531 61° Northeast 497 572 37,000  Level Atlanta Center
Tue 05:43:55 PM 31.7469 -87.3161 61° Northeast 492 566 37,000  Level Atlanta Center
Tue 05:44:55 PM 31.8133 -87.1744 61° Northeast 487 560 37,000  Level Atlanta Center
Tue 05:45:55 PM 31.8814 -87.0375 60° Northeast 487 560 37,000  Level Atlanta Center
Tue 05:46:55 PM 31.9472 -86.8975 61° Northeast 487 560 37,000  Level Atlanta Center
Tue 05:47:55 PM 32.0131 -86.7600 61° Northeast 487 560 37,000  Level Atlanta Center
Tue 05:48:55 PM 32.0914 -86.6131 58° Northeast 481 554 37,000  Level Atlanta Center
Tue 05:49:55 PM 32.1547 -86.4725 62° Northeast 481 554 37,000  Level Atlanta Center
Tue 05:50:55 PM 32.2114 -86.3489 62° Northeast 475 547 37,000  Level Atlanta Center
Tue 05:51:55 PM 32.3056 -86.2111 51° Northeast 475 547 37,000  Level Atlanta Center
Tue 05:52:55 PM 32.3953 -86.0906 49° Northeast 480 552 37,000  Level Atlanta Center
Tue 05:53:55 PM 32.4850 -85.9719 48° Northeast 480 552 37,000  Level Atlanta Center
Tue 05:54:55 PM 32.5700 -85.8628 47° Northeast 485 558 37,000  Level Atlanta Center
Tue 05:55:55 PM 32.6594 -85.7414 49° Northeast 485 558 37,000  Level Atlanta Center
Tue 05:56:55 PM 32.7531 -85.6219 47° Northeast 490 564 37,000  Level Atlanta Center
Tue 05:57:55 PM 32.8442 -85.4950 49° Northeast 490 564 37,000  Level Atlanta Center
Tue 05:58:55 PM 32.9397 -85.3706 48° Northeast 496 571 37,000  Level Atlanta Center
Tue 05:59:55 PM 33.0286 -85.2406 51° Northeast 496 571 37,000  Level Atlanta Center
Tue 06:00:55 PM 33.1300 -85.1153 46° Northeast 489 563 37,000  Level Atlanta Center
Tue 06:01:55 PM 33.2186 -84.9972 48° Northeast 483 556 37,000  Level Atlanta Center
Tue 06:02:55 PM 33.3050 -84.8789 49° Northeast 472 543 37,000 -150 Level Atlanta Center
Tue 06:03:55 PM 33.3892 -84.7628 49° Northeast 472 543 36,700 -750 Descending Atlanta Center
Tue 06:04:55 PM 33.4797 -84.6392 49° Northeast 480 552 35,500 -850 Descending Atlanta Center
Tue 06:05:55 PM 33.5678 -84.5175 49° Northeast 480 552 35,000 -250 Descending Atlanta Center
Tue 06:06:55 PM 33.6247 -84.3956 61° Northeast 458 527 35,000  Level Atlanta Center
Tue 06:07:55 PM 33.6356 -84.2308 85° East 458 527 35,000  Level Atlanta Center
Tue 06:08:55 PM 33.6461 -84.0414 86° East 497 572 35,000  Level Atlanta Center
Tue 06:09:55 PM 33.6522 -83.8717 87° East 509 586 35,000 -450 Level Atlanta Center
Tue 06:10:55 PM 33.6603 -83.7019 87° East 509 586 34,100 -1,550 Descending Atlanta Center
Tue 06:11:55 PM 33.6639 -83.5372 88° East 504 580 31,900 -2,000 Descending Atlanta Center
Tue 06:12:55 PM 33.6714 -83.3772 87° East 486 559 30,100 -1,000 Descending Atlanta Center
Tue 06:13:55 PM 33.6747 -83.2300 88° East 455 524 29,900 -700 Descending Atlanta Center
Tue 06:14:55 PM 33.6800 -83.0828 87° East 443 510 28,700 -1,400 Descending Atlanta Center
Tue 06:15:55 PM 33.6850 -82.9553 87° East 431 496 27,100 -850 Descending Atlanta Center
Tue 06:16:55 PM 33.6919 -82.8106 87° East 431 496 27,000 -50 Descending Atlanta Center
Tue 06:17:55 PM 33.6925 -82.6631 90° East 431 496 27,000  Level Atlanta Center
Tue 06:19:39 PM 33.6978 -82.3858 89° East 441 507 27,000  Level Jacksonville Center
Tue 06:20:39 PM 33.7053 -82.2286 87° East 452 520 27,000  Level Jacksonville Center
Tue 06:21:39 PM 33.7189 -82.0736 84° East 459 528 27,000  Level Jacksonville Center
Tue 06:22:39 PM 33.7450 -81.9208 78° East 464 534 27,000  Level Jacksonville Center
Tue 06:23:39 PM 33.8108 -81.7878 59° Northeast 456 525 27,000  Level Jacksonville Center
Tue 06:24:39 PM 33.8867 -81.6642 54° Northeast 451 519 27,000  Level Jacksonville Center
Tue 06:25:39 PM 33.9522 -81.5456 56° Northeast 458 527 27,000  Level Jacksonville Center
Tue 06:26:39 PM 34.0261 -81.4192 55° Northeast 463 533 27,000  Level Jacksonville Center
Tue 06:27:39 PM 34.0975 -81.2928 56° Northeast 463 533 27,000  Level Jacksonville Center
Tue 06:28:39 PM 34.1750 -81.1606 55° Northeast 468 539 27,000  Level Jacksonville Center
Tue 06:29:39 PM 34.2503 -81.0236 56° Northeast 468 539 27,000  Level Jacksonville Center
Tue 06:30:39 PM 34.3172 -80.9039 56° Northeast 449 517 27,000 -300 Level Jacksonville Center
Tue 06:31:39 PM 34.3903 -80.7689 57° Northeast 453 521 26,400 -1,050 Descending Jacksonville Center
Tue 06:32:39 PM 34.4653 -80.6411 55° Northeast 456 525 24,900 -1,200 Descending Jacksonville Center
Tue 06:33:39 PM 34.5339 -80.5208 55° Northeast 450 518 24,000 -450 Descending Jacksonville Center
Tue 06:34:39 PM 34.5983 -80.3981 57° Northeast 445 512 24,000 -314 Level Jacksonville Center
Tue 06:36:50 PM 34.7383 -80.1436 56° Northeast 426 490 23,000 -313 Descending Washington Center
Tue 06:37:51 PM 34.8006 -80.0408 54° Northeast 421 484 23,000 -50 Level Washington Center
Tue 06:38:51 PM 34.9003 -79.9350 41° Northeast 426 490 22,900 -712 Descending Washington Center
Tue 06:39:49 PM 34.9872 -79.8383 42° Northeast 419 482 21,600 -1,563 Descending Washington Center
Tue 06:40:50 PM 35.0719 -79.7489 41° Northeast 406 467 19,800 -1,623 Descending Washington Center
Tue 06:41:51 PM 35.1369 -79.6761 42° Northeast 396 456 18,300 -1,815 Descending Washington Center
Tue 06:42:49 PM 35.2383 -79.5744 39° Northeast 396 456 16,200 -1,979 Descending Washington Center
Tue 06:43:25 PM 35.2983 -79.5342 29° Northeast 388 447 15,200 -1,377 Descending Washington Center
Tue 06:43:50 PM 35.3239 -79.5150 31° Northeast 391 450 14,800 -1,412 Descending Washington Center
Tue 06:44:50 PM 35.4136 -79.4506 30° Northeast 358 412 13,200 -1,615 Descending Washington Center
Tue 06:45:08 PM 35.4372 -79.4339 30° Northeast 310 357 12,700 -1,636 Descending Washington Center
Tue 06:46:51 PM 35.5406 -79.3317 39° Northeast 281 323 9,900 -1,565 Descending Washington Center
Tue 06:47:49 PM 35.5803 -79.2644 54° Northeast 276 318 8,500 -1,576 Descending Washington Center
Tue 06:48:49 PM 35.6247 -79.1744 59° Northeast 276 318 6,800 -1,538 Descending Washington Center
Tue 06:49:07 PM 35.6314 -79.1569 65° Northeast 269 310 6,500 -984 Descending Washington Center
Tue 06:49:50 PM 35.6578 -79.1097 55° Northeast 256 295 5,800 -984 Descending Washington Center
Tue 06:50:08 PM 35.6647 -79.0894 67° East 240 276 5,500 -1,000 Descending Washington Center
Tue 06:50:50 PM 35.6933 -79.0369 56° Northeast 237 273 4,800 -1,000 Descending Washington Center
Tue 06:51:08 PM 35.7003 -79.0169 67° East 231 266 4,500 -1,100 Descending Washington Center
Tue 06:51:50 PM 35.7286 -78.9669 55° Northeast 237 273 3,700 -932 Descending Washington Center
Tue 06:52:51 PM 35.7719 -78.9125 46° Northeast 227 261 2,900 -825 Descending Washington Center
Tue 06:53:10 PM 35.7828 -78.8975 48° Northeast 205 236 2,600 -987 Descending Washington Center
Tue 06:54:10 PM 35.8175 -78.8528 46° Northeast 175 201 1,600 -843 Descending Washington Center
Tue 06:55:11 PM 35.8456 -78.8206 43° Northeast 126 145 900 -689 Descending Washington Center

Login

Don't have an account? Register now (free) for customized features, flight alerts, and more!